Latest Weather Observations for Leonora Airport

IDW60801

Issued at 8:05 pm WST Wednesday 26 November 2014 (issued every 30 minutes, with the page automatically refreshed every 10 minutes)

About weather observations | Map of weather stations | Latest weather observations for WA | Other Formats
Station Details ID: 012241 Name: LEONORA AERO Lat: -28.88 Lon: 121.32 Height: 370.0 m
Data from the previous 72 hours. | See also: Recent months for locations in Western Australia
Date/Time
WST
Temp
°C
App
Temp
°C
Dew
Point
Rel
Hum
%
Delta-T
°C
Wind Press
QNH
hPa
Press
MSL
hPa
Rain
since 9 am
mm
Dir
 
Spd
km/h
Gust
km/h
Spd
kts
Gust
kts
26/08:00pm 31.1 26.0 3.2 17 14.4 E 19 28 10 15 1012.2 1010.2 0.0
26/07:30pm 31.6 26.8 2.7 16 14.9 E 17 22 9 12 1012.2 1010.2 0.0
26/07:00pm 32.0 26.9 3.1 16 15.0 E 19 30 10 16 1011.9 1009.9 0.0
26/06:30pm 32.3 27.8 2.4 15 15.4 ENE 15 22 8 12 1011.5 1009.5 0.0
26/06:00pm 32.7 27.0 2.7 15 15.5 ENE 22 32 12 17 1011.2 1009.2 0.0
26/05:30pm 33.0 26.5 2.9 15 15.6 E 26 32 14 17 1011.4 1009.4 0.0
26/05:00pm 33.4 26.5 2.3 14 16.1 E 28 35 15 19 1011.5 1009.5 0.0
26/04:30pm 33.8 28.4 2.6 14 16.2 ENE 20 28 11 15 1011.5 1009.5 0.0
26/04:00pm 33.9 27.2 1.6 13 16.5 NE 26 37 14 20 1011.8 1009.8 0.0
26/03:30pm 34.6 28.8 2.2 13 16.8 ENE 22 35 12 19 1012.0 1010.0 0.0
26/03:00pm 34.9 29.5 2.4 13 17.0 E 20 35 11 19 1012.3 1010.4 0.0
26/02:30pm 34.2 28.3 1.9 13 16.6 E 22 35 12 19 1013.0 1011.0 0.0
26/02:00pm 33.5 27.2 1.3 13 16.4 ENE 24 39 13 21 1013.1 1011.1 0.0
26/01:30pm 33.6 27.7 1.4 13 16.4 ENE 22 35 12 19 1013.2 1011.2 0.0
26/01:00pm 32.6 27.1 1.7 14 15.7 E 20 35 11 19 1013.4 1011.4 0.0
26/12:30pm 32.5 27.0 1.6 14 15.7 ENE 20 35 11 19 1013.8 1011.8 0.0
26/12:00pm 31.6 24.4 0.9 14 15.3 ENE 28 39 15 21 1014.2 1012.2 0.0
26/11:30am 31.1 25.0 0.5 14 15.1 ENE 22 32 12 17 1014.8 1012.9 0.0
26/11:00am 30.7 23.4 0.2 14 14.9 E 28 37 15 20 1015.5 1013.5 0.0
26/10:30am 28.4 21.8 -0.7 15 13.8 E 24 37 13 20 1016.3 1014.3 0.0
26/10:00am 27.8 21.2 -0.3 16 13.4 E 24 33 13 18 1016.7 1014.7 0.0
26/09:30am 26.8 19.8 -0.3 17 12.8 E 26 37 14 20 1016.7 1014.7 0.0
26/09:00am 26.5 19.9 -0.5 17 12.7 E 24 33 13 18 1017.1 1015.2 0.0
26/08:30am 25.6 19.4 -0.5 18 12.2 E 22 30 12 16 1017.4 1015.5 0.0
26/08:00am 24.9 17.8 -1.0 18 11.9 E 26 33 14 18 1017.2 1015.3 0.0
26/07:30am 25.0 17.9 -0.9 18 11.9 E 26 35 14 19 1017.5 1015.6 0.0
26/07:00am 25.0 18.8 -0.2 19 11.8 E 22 33 12 18 1017.3 1015.4 0.0
26/06:30am 23.7 17.2 0.1 21 11.0 ESE 24 35 13 19 1016.9 1014.9 0.0
26/06:00am 23.4 18.4 1.1 23 10.5 SSE 17 28 9 15 1017.0 1015.0 0.0
26/05:47am 23.4 16.3 1.1 23 10.5 E 28 46 15 25 1015.9 1013.9 0.0
26/05:30am 23.4 15.4 1.7 24 10.4 ENE 33 46 18 25 1015.0 1013.1 0.0
26/05:00am 23.6 16.0 0.7 22 10.7 ENE 30 39 16 21 1016.4 1014.4 0.0
26/04:30am 23.8 17.1 1.4 23 10.7 E 26 33 14 18 1017.2 1015.3 0.0
26/04:00am 24.0 19.3 1.0 22 10.9 E 15 20 8 11 1017.2 1015.3 0.0
26/03:30am 24.4 19.7 0.7 21 11.2 ESE 15 17 8 9 1017.0 1015.0 0.0
26/03:00am 24.6 20.3 0.8 21 11.3 ESE 13 17 7 9 1017.3 1015.4 0.0
26/02:30am 24.9 20.5 0.4 20 11.6 E 13 17 7 9 1017.3 1015.4 0.0
26/02:00am 25.1 20.0 0.6 20 11.6 E 17 22 9 12 1016.7 1014.7 0.0
26/01:30am 25.3 19.8 0.7 20 11.7 E 19 26 10 14 1016.0 1014.0 0.0
26/01:00am 25.5 19.9 0.9 20 11.8 ESE 20 30 11 16 1015.6 1013.6 0.0
26/12:30am 25.8 19.7 0.5 19 12.0 ESE 22 32 12 17 1015.5 1013.5 0.0
26/12:00am 26.3 20.7 0.9 19 12.2 ESE 20 28 11 15 1015.7 1013.7 0.0
 
Date/Time
WST
Temp
°C
App
Temp
°C
Dew
Point
Rel
Hum
%
Delta-T
°C
Wind Press
QNH
hPa
Press
MSL
hPa
Rain
since 9 am
mm
Dir
 
Spd
km/h
Gust
km/h
Spd
kts
Gust
kts
25/11:30pm 26.8 21.2 1.3 19 12.4 E 20 28 11 15 1015.6 1013.6 0.0
25/11:00pm 27.2 21.7 1.6 19 12.5 ESE 20 30 11 16 1015.5 1013.5 0.0
25/10:30pm 27.2 22.1 3.0 21 12.2 ESE 19 24 10 13 1015.3 1013.4 0.0
25/10:00pm 27.5 23.4 4.5 23 11.9 ESE 15 17 8 9 1015.6 1013.6 0.0
25/09:30pm 27.6 23.9 4.6 23 11.9 E 13 17 7 9 1015.2 1013.3 0.0
25/09:00pm 28.1 24.4 4.4 22 12.3 E 13 15 7 8 1015.2 1013.3 0.0
25/08:30pm 29.1 25.3 3.9 20 13.0 ENE 13 17 7 9 1015.3 1013.4 0.0
25/08:00pm 29.9 26.1 3.8 19 13.5 NE 13 20 7 11 1015.3 1013.4 0.0
25/07:30pm 30.3 25.8 4.1 19 13.7 NE 17 20 9 11 1015.1 1013.2 0.0
25/07:00pm 30.5 26.2 3.5 18 14.0 ENE 15 20 8 11 1014.4 1012.4 0.0
25/06:30pm 30.8 25.5 2.1 16 14.5 ENE 19 26 10 14 1013.9 1011.9 0.0
25/06:00pm 31.6 25.7 1.8 15 15.1 E 22 32 12 17 1013.5 1011.5 0.0
25/05:30pm 32.0 26.3 3.1 16 15.0 ENE 22 33 12 18 1013.7 1011.7 0.0
25/05:00pm 32.0 27.1 2.1 15 15.2 ENE 17 26 9 14 1014.1 1012.1 0.0
25/04:30pm 31.8 27.4 2.9 16 14.9 ENE 15 26 8 14 1014.7 1012.8 0.0
25/04:00pm 31.9 27.8 2.1 15 15.2 NE 13 19 7 10 1014.9 1013.0 0.0
25/03:30pm 32.2 26.9 3.2 16 15.1 E 20 22 11 12 1015.1 1013.2 0.0
25/03:00pm 31.7 28.1 2.8 16 14.9 ENE 11 20 6 11 1015.6 1013.6 0.0
25/02:30pm 32.1 27.8 3.1 16 15.0 NE 15 20 8 11 1015.8 1013.8 0.0
25/02:00pm 31.3 27.4 3.4 17 14.5 ENE 13 22 7 12 1016.3 1014.3 0.0
25/01:30pm 30.7 26.1 3.7 18 14.0 E 17 24 9 13 1016.4 1014.4 0.0
25/01:00pm 30.5 24.9 3.5 18 14.0 ENE 22 33 12 18 1016.7 1014.7 0.0
25/12:30pm 31.7 25.8 3.7 17 14.6 NE 24 32 13 17 1016.9 1014.9 0.0
25/12:00pm 30.8 25.3 3.8 18 14.0 E 22 33 12 18 1017.8 1015.9 0.0
25/11:30am 29.3 24.8 4.0 20 13.1 E 17 32 9 17 1018.7 1016.7 0.0
25/11:00am 28.9 24.4 4.4 21 12.7 ENE 17 28 9 15 1019.3 1017.3 0.0
25/10:30am 26.9 21.4 4.0 23 11.7 E 22 33 12 18 1019.3 1017.3 0.0
25/10:00am 27.9 22.1 4.2 22 12.2 E 24 35 13 19 1019.4 1017.4 0.0
25/09:30am 26.3 20.3 3.5 23 11.5 E 24 33 13 18 1019.6 1017.7 0.0
25/09:00am 25.2 20.0 3.8 25 10.7 ENE 20 32 11 17 1020.7 1018.8 0.0
25/08:30am 24.5 19.3 3.8 26 10.4 E 20 30 11 16 1020.7 1018.8 0.0
25/08:00am 22.7 17.6 3.3 28 9.5 E 19 30 10 16 1020.5 1018.6 0.0
25/07:30am 22.6 16.6 3.2 28 9.5 ENE 24 33 13 18 1020.4 1018.5 0.0
25/07:00am 21.6 15.5 2.8 29 9.0 E 24 35 13 19 1020.1 1018.2 0.0
25/06:30am 20.7 13.8 2.5 30 8.7 E 28 37 15 20 1019.6 1017.7 0.0
25/06:00am 19.9 14.1 2.3 31 8.3 E 22 32 12 17 1019.3 1017.3 0.0
25/05:30am 19.5 14.1 2.4 32 8.0 E 20 33 11 18 1019.0 1017.0 0.0
25/05:00am 19.6 13.8 2.5 32 8.1 E 22 32 12 17 1018.7 1016.7 0.0
25/04:30am 20.1 14.7 2.5 31 8.3 E 20 28 11 15 1018.5 1016.5 0.0
25/04:00am 20.5 15.2 2.8 31 8.4 E 20 26 11 14 1018.0 1016.1 0.0
25/03:30am 20.7 15.4 3.0 31 8.5 E 20 28 11 15 1017.7 1015.8 0.0
25/03:00am 21.2 15.2 3.4 31 8.6 E 24 37 13 20 1017.5 1015.6 0.0
25/02:30am 21.5 15.6 3.7 31 8.7 E 24 35 13 19 1017.4 1015.5 0.0
25/02:00am 21.8 16.3 3.9 31 8.8 E 22 30 12 16 1017.1 1015.2 0.0
25/01:30am 22.3 16.5 4.4 31 8.9 E 24 35 13 19 1017.1 1015.2 0.0
25/01:00am 22.8 17.0 4.3 30 9.2 E 24 35 13 19 1017.1 1015.2 0.0
25/12:30am 23.1 17.7 4.6 30 9.3 E 22 33 12 18 1017.2 1015.3 0.0
25/12:00am 23.4 17.6 4.4 29 9.5 ESE 24 37 13 20 1017.3 1015.4 0.0
 
Date/Time
WST
Temp
°C
App
Temp
°C
Dew
Point
Rel
Hum
%
Delta-T
°C
Wind Press
QNH
hPa
Press
MSL
hPa
Rain
since 9 am
mm
Dir
 
Spd
km/h
Gust
km/h
Spd
kts
Gust
kts
24/11:30pm 23.9 18.8 4.3 28 9.9 E 20 32 11 17 1017.6 1015.7 0.0
24/11:00pm 24.1 18.9 3.4 26 10.2 ESE 20 28 11 15 1017.6 1015.7 0.0
24/10:30pm 24.6 18.6 3.3 25 10.6 ESE 24 35 13 19 1017.6 1015.7 0.0
24/10:00pm 25.0 19.8 2.4 23 11.1 ESE 19 26 10 14 1017.7 1015.8 0.0
24/09:30pm 25.5 20.6 2.2 22 11.4 ESE 17 24 9 13 1018.0 1016.1 0.0
24/09:00pm 25.9 20.6 1.9 21 11.7 ESE 19 24 10 13 1018.0 1016.1 0.0
24/08:30pm 26.3 21.4 2.3 21 11.8 ESE 17 24 9 13 1017.8 1015.9 0.0
24/08:00pm 26.9 22.5 2.7 21 12.1 SE 15 26 8 14 1017.7 1015.8 0.0
24/07:30pm 27.3 22.4 1.7 19 12.6 ESE 17 20 9 11 1017.4 1015.5 0.0
24/07:00pm 27.8 22.8 1.3 18 13.0 ESE 17 22 9 12 1017.0 1015.0 0.0
24/06:30pm 28.4 23.3 1.0 17 13.4 ESE 17 24 9 13 1016.6 1014.6 0.0
24/06:00pm 29.3 23.8 0.9 16 13.9 ESE 19 28 10 15 1016.1 1014.1 0.0
24/05:30pm 29.6 24.0 1.1 16 14.1 ESE 20 28 11 15 1015.8 1013.8 0.0
24/05:00pm 30.1 24.4 0.6 15 14.5 ESE 20 30 11 16 1015.5 1013.5 0.0
24/04:30pm 31.0 26.5 2.3 16 14.6 E 15 28 8 15 1015.5 1013.5 0.0
24/04:00pm 30.3 25.4 1.7 16 14.3 ESE 17 28 9 15 1015.6 1013.6 0.0
24/03:30pm 30.5 25.0 1.9 16 14.4 SE 20 26 11 14 1015.9 1013.9 0.0
24/03:00pm 29.8 24.5 2.1 17 13.9 ENE 19 26 10 14 1016.2 1014.2 0.0
24/02:30pm 29.8 25.1 2.9 18 13.7 SSE 17 28 9 15 1016.6 1014.6 0.0
24/02:00pm 29.2 24.5 3.2 19 13.3 ESE 17 30 9 16 1017.0 1015.0 0.0
24/01:30pm 28.9 24.3 3.7 20 13.0 ESE 17 24 9 13 1017.4 1015.5 0.0
24/01:00pm 28.3 24.2 4.6 22 12.3 E 15 24 8 13 1017.9 1016.0 0.0
24/12:30pm 27.3 22.4 5.0 24 11.6 ESE 20 33 11 18 1018.4 1016.4 0.0
24/12:00pm 26.1 21.8 5.1 26 10.9 SE 17 28 9 15 1018.8 1016.8 0.0
24/11:30am 25.4 20.7 5.1 27 10.5 E 19 32 10 17 1019.5 1017.5 0.0
24/11:00am 24.3 18.0 5.6 30 9.6 ESE 28 33 15 18 1019.8 1017.9 0.0
24/10:30am 22.8 17.9 5.3 32 8.9 ESE 20 35 11 19 1020.3 1018.4 0.0
24/10:00am 22.7 18.2 6.0 34 8.6 ESE 19 22 10 12 1020.6 1018.7 0.0
24/09:30am 21.8 16.3 6.1 36 8.1 E 24 35 13 19 1020.8 1018.9 0.0
24/09:00am 20.2 14.5 6.5 41 7.0 E 26 37 14 20 1021.0 1019.1 0.0
24/08:30am 19.5 14.3 7.3 45 6.3 ESE 24 33 13 18 1021.3 1019.3 0.0
24/08:00am 18.9 13.0 7.4 47 5.9 E 28 39 15 21 1021.0 1019.1 0.0
24/07:35am 17.5 11.5 7.0 50 5.3 ESE 28 46 15 25 1021.2 1019.2 0.0
24/07:30am 17.9 12.0 7.3 50 5.4 E 28 39 15 21 1021.2 1019.2 0.0
24/07:00am 17.3 10.6 7.4 52 5.0 ESE 32 46 17 25 1020.9 1019.0 0.0
24/06:30am 16.7 10.1 7.9 56 4.5 ESE 32 39 17 21 1020.6 1018.7 0.0
24/06:00am 16.2 10.9 8.4 60 4.0 ESE 26 43 14 23 1020.2 1018.3 0.0
24/05:30am 15.9 9.5 8.6 62 3.8 ESE 32 46 17 25 1019.7 1017.8 0.0
24/05:00am 15.9 10.0 8.9 63 3.6 SE 30 44 16 24 1019.0 1017.0 0.0
24/04:35am 16.6 11.3 9.8 64 3.6 SE 28 50 15 27 1018.4 1016.4 0.0
24/04:30am 16.7 11.4 9.9 64 3.6 SE 28 39 15 21 1018.3 1016.3 0.0
24/04:12am 17.1 10.5 10.0 63 3.8 SE 35 54 19 29 1017.7 1015.8 0.0
24/04:00am 17.4 10.9 10.3 63 3.8 SE 35 48 19 26 1017.3 1015.4 0.0
24/03:31am 18.9 13.5 9.4 54 5.1 SE 28 46 15 25 1016.8 1014.8 0.0
24/03:30am 18.9 13.7 8.8 52 5.4 SE 26 46 14 25 1016.8 1014.8 0.0
24/03:00am 19.5 13.5 3.2 34 7.8 SSE 24 33 13 18 1016.3 1014.3 0.0
24/02:30am 20.4 13.4 1.8 29 8.7 SSE 28 43 15 23 1015.9 1013.9 0.0
24/02:00am 20.8 16.1 1.1 27 9.1 SE 15 20 8 11 1015.5 1013.5 0.0
24/01:30am 21.4 16.2 0.0 24 9.8 SE 17 24 9 13 1015.2 1013.3 0.0
24/01:00am 22.0 16.7 -0.7 22 10.3 SSE 17 24 9 13 1015.2 1013.3 0.0
24/12:30am 22.1 17.1 -1.2 21 10.4 SSE 15 20 8 11 1015.2 1013.3 0.0
24/12:00am 22.0 17.4 -1.3 21 10.4 S 13 17 7 9 1015.3 1013.4 0.0
 
Date/Time
WST
Temp
°C
App
Temp
°C
Dew
Point
Rel
Hum
%
Delta-T
°C
Wind Press
QNH
hPa
Press
MSL
hPa
Rain
since 9 am
mm
Dir
 
Spd
km/h
Gust
km/h
Spd
kts
Gust
kts
23/11:30pm 22.2 17.1 -1.8 20 10.6 S 15 19 8 10 1015.3 1013.4 0.0
23/11:00pm 22.4 18.5 -1.6 20 10.7 S 9 15 5 8 1015.5 1013.5 0.0
23/10:30pm 22.8 18.9 -1.3 20 10.8 S 9 17 5 9 1015.5 1013.5 0.0
23/10:00pm 23.4 18.7 -1.5 19 11.2 S 13 19 7 10 1015.5 1013.5 0.0
23/09:30pm 24.2 19.6 -0.9 19 11.5 S 13 20 7 11 1015.3 1013.4 0.0
23/09:00pm 24.5 19.9 -1.3 18 11.8 S 13 15 7 8 1014.9 1013.0 0.0
23/08:30pm 24.9 21.0 -1.8 17 12.1 SSW 9 11 5 6 1014.6 1012.6 0.0

Other Formats:

Comma delimited format used in spreadsheet applications
http://www.bom.gov.au/fwo/IDW60801/IDW60801.94450.axf

JavaScript Object Notation format (JSON) in row-major order
http://www.bom.gov.au/fwo/IDW60801/IDW60801.94450.json